createdAt,value
2023-01-03T00:01:44.302Z,98501.00
2023-01-03T00:04:13.763Z,98513.00
2023-01-03T00:06:45.745Z,98517.00
2023-01-03T00:09:16.606Z,98514.00
2023-01-03T00:12:05.771Z,98521.00
2023-01-03T00:14:36.560Z,98494.00
2023-01-03T00:17:07.841Z,98489.00
2023-01-03T00:19:41.391Z,98497.00
2023-01-03T00:22:10.903Z,98498.00
2023-01-03T00:24:39.741Z,98481.00
2023-01-03T00:27:08.639Z,98483.00
2023-01-03T00:29:37.340Z,98488.00
2023-01-03T00:32:08.202Z,98468.00
2023-01-03T00:34:37.070Z,98464.00
2023-01-03T00:37:05.420Z,98449.00
2023-01-03T00:39:34.985Z,98472.00
2023-01-03T00:42:03.127Z,98485.00
2023-01-03T00:44:31.562Z,98488.00
2023-01-03T00:46:59.959Z,98486.00
2023-01-03T00:49:29.590Z,98498.00
2023-01-03T00:51:58.366Z,98495.00
2023-01-03T00:54:26.693Z,98503.00
2023-01-03T00:56:54.921Z,98509.00
2023-01-03T00:59:23.825Z,98515.00
2023-01-03T01:01:55.478Z,98497.00
2023-01-03T01:04:27.398Z,98514.00
2023-01-03T01:06:59.625Z,98507.00
2023-01-03T01:09:30.113Z,98509.00
2023-01-03T01:11:58.792Z,98541.00
2023-01-03T01:14:30.667Z,98531.00
2023-01-03T01:17:01.206Z,98524.00
2023-01-03T01:19:32.774Z,98525.00
2023-01-03T01:22:02.643Z,98525.00
2023-01-03T01:24:30.861Z,98535.00
2023-01-03T01:26:59.338Z,98525.00
2023-01-03T01:29:27.661Z,98535.00
2023-01-03T01:31:55.962Z,98529.00
2023-01-03T01:34:24.182Z,98546.00
2023-01-03T01:36:52.891Z,98549.00
2023-01-03T01:39:24.948Z,98547.00
2023-01-03T01:42:19.425Z,98542.00
2023-01-03T01:45:00.134Z,98550.00
2023-01-03T01:47:35.942Z,98552.00
2023-01-03T01:50:20.295Z,98536.00
2023-01-03T01:52:55.346Z,98554.00
2023-01-03T01:55:28.897Z,98541.00
2023-01-03T01:57:57.192Z,98539.00
2023-01-03T02:00:25.417Z,98550.00
2023-01-03T02:02:55.166Z,98541.00
2023-01-03T02:05:26.817Z,98551.00
2023-01-03T02:07:56.521Z,98558.00
2023-01-03T02:10:52.609Z,98551.00
2023-01-03T02:13:34.652Z,98548.00
2023-01-03T02:16:27.804Z,98559.00
2023-01-03T02:19:17.664Z,98549.00
2023-01-03T02:22:22.045Z,98536.00
2023-01-03T02:25:39.956Z,98550.00
2023-01-03T02:28:53.830Z,98546.00
2023-01-03T02:31:32.226Z,98544.00
2023-01-03T02:34:12.545Z,98536.00
2023-01-03T02:36:53.446Z,98548.00
2023-01-03T02:39:31.212Z,98542.00
2023-01-03T02:42:23.198Z,98541.00
2023-01-03T02:45:03.939Z,98540.00
2023-01-03T02:47:45.083Z,98557.00
2023-01-03T02:50:15.007Z,98563.00
2023-01-03T02:52:44.950Z,98555.00
2023-01-03T02:55:21.010Z,98579.00
2023-01-03T02:57:56.732Z,98574.00
2023-01-03T03:00:30.340Z,98587.00
2023-01-03T03:03:06.230Z,98574.00
2023-01-03T03:05:44.758Z,98586.00
2023-01-03T03:08:12.960Z,98576.00
2023-01-03T03:11:01.549Z,98586.00
2023-01-03T03:13:35.482Z,98567.00
2023-01-03T03:16:12.505Z,98569.00
2023-01-03T03:18:57.237Z,98577.00
2023-01-03T03:21:47.392Z,98583.00
2023-01-03T03:24:39.470Z,98583.00
2023-01-03T03:27:25.745Z,98568.00
2023-01-03T03:29:56.934Z,98566.00
2023-01-03T03:32:29.540Z,98563.00
2023-01-03T03:35:04.502Z,98568.00
2023-01-03T03:37:36.473Z,98573.00
2023-01-03T03:40:23.631Z,98559.00
2023-01-03T03:43:16.409Z,98571.00
2023-01-03T03:45:55.508Z,98579.00
2023-01-03T03:48:31.010Z,98574.00
2023-01-03T03:51:09.193Z,98575.00
2023-01-03T03:53:42.378Z,98572.00
2023-01-03T03:56:15.097Z,98581.00
2023-01-03T03:58:46.096Z,98580.00
2023-01-03T04:01:18.992Z,98578.00
2023-01-03T04:03:51.658Z,98583.00
2023-01-03T04:06:27.804Z,98586.00
2023-01-03T04:08:56.046Z,98590.00
2023-01-03T04:11:24.172Z,98597.00
2023-01-03T04:13:52.315Z,98614.00
2023-01-03T04:16:20.560Z,98603.00
2023-01-03T04:18:48.707Z,98607.00
2023-01-03T04:21:20.964Z,98610.00
2023-01-03T04:23:50.786Z,98616.00
2023-01-03T04:26:19.367Z,98611.00
2023-01-03T04:28:47.476Z,98600.00
2023-01-03T04:31:15.646Z,98601.00
2023-01-03T04:33:43.781Z,98604.00
2023-01-03T04:36:11.983Z,98603.00
2023-01-03T04:38:40.092Z,98609.00
2023-01-03T04:41:11.312Z,98608.00
2023-01-03T04:43:56.903Z,98619.00
2023-01-03T04:46:25.273Z,98610.00
2023-01-03T04:48:53.479Z,98612.00
2023-01-03T04:51:21.725Z,98609.00
2023-01-03T04:53:50.092Z,98605.00
2023-01-03T04:56:24.335Z,98606.00
2023-01-03T04:58:52.463Z,98606.00
2023-01-03T05:01:21.117Z,98621.00
2023-01-03T05:03:49.751Z,98611.00
2023-01-03T05:06:19.113Z,98604.00
2023-01-03T05:08:48.499Z,98614.00
2023-01-03T05:11:16.651Z,98605.00
2023-01-03T05:13:46.118Z,98600.00
2023-01-03T05:16:16.900Z,98600.00
2023-01-03T05:18:47.023Z,98627.00
2023-01-03T05:21:35.473Z,98615.00
2023-01-03T05:24:21.376Z,98612.00
2023-01-03T05:26:50.554Z,98630.00
2023-01-03T05:29:22.880Z,98622.00
2023-01-03T05:31:51.170Z,98622.00
2023-01-03T05:34:19.357Z,98628.00
2023-01-03T05:36:47.557Z,98637.00
2023-01-03T05:39:15.729Z,98643.00
2023-01-03T05:42:02.357Z,98656.00
2023-01-03T05:44:35.060Z,98650.00
2023-01-03T05:47:05.653Z,98642.00
2023-01-03T05:49:34.377Z,98652.00
2023-01-03T05:52:03.048Z,98658.00
2023-01-03T05:54:31.200Z,98659.00
2023-01-03T05:56:59.303Z,98653.00
2023-01-03T05:59:27.562Z,98656.00
2023-01-03T06:01:57.191Z,98651.00
2023-01-03T06:04:25.643Z,98654.00
2023-01-03T06:06:54.031Z,98652.00
2023-01-03T06:09:22.157Z,98652.00
2023-01-03T06:11:50.363Z,98650.00
2023-01-03T06:14:20.008Z,98652.00
2023-01-03T06:17:05.624Z,98662.00
2023-01-03T06:19:35.111Z,98662.00
2023-01-03T06:22:08.633Z,98663.00
2023-01-03T06:24:40.687Z,98663.00
2023-01-03T06:27:08.969Z,98657.00
2023-01-03T06:29:37.182Z,98665.00
2023-01-03T06:32:09.465Z,98672.00
2023-01-03T06:34:39.752Z,98664.00
2023-01-03T06:37:08.407Z,98670.00
2023-01-03T06:39:36.756Z,98663.00
2023-01-03T06:42:19.378Z,98674.00
2023-01-03T06:45:08.309Z,98677.00
2023-01-03T06:47:55.413Z,98685.00
2023-01-03T06:50:42.689Z,98675.00
2023-01-03T06:53:16.150Z,98676.00
2023-01-03T06:55:52.757Z,98687.00
2023-01-03T06:58:24.413Z,98686.00
2023-01-03T07:00:53.525Z,98701.00
2023-01-03T07:03:22.470Z,98698.00
2023-01-03T07:05:52.708Z,98700.00
2023-01-03T07:08:20.950Z,98695.00
2023-01-03T07:10:49.171Z,98702.00
2023-01-03T07:13:34.867Z,98705.00
2023-01-03T07:16:03.003Z,98702.00
2023-01-03T07:18:32.186Z,98714.00
2023-01-03T07:21:01.646Z,98715.00
2023-01-03T07:23:29.795Z,98718.00
2023-01-03T07:25:58.052Z,98723.00
2023-01-03T07:28:26.590Z,98740.00
2023-01-03T07:31:01.218Z,98723.00
2023-01-03T07:33:29.550Z,98733.00
2023-01-03T07:36:07.739Z,98739.00
2023-01-03T07:38:40.499Z,98732.00
2023-01-03T07:41:09.739Z,98729.00
2023-01-03T07:43:39.235Z,98736.00
2023-01-03T07:46:14.987Z,98735.00
2023-01-03T07:48:43.950Z,98725.00
2023-01-03T07:51:17.270Z,98746.00
2023-01-03T07:53:46.194Z,98745.00
2023-01-03T07:56:16.777Z,98756.00
2023-01-03T07:58:46.532Z,98748.00
2023-01-03T08:01:16.960Z,98760.00
2023-01-03T08:03:46.509Z,98747.00
2023-01-03T08:06:18.723Z,98756.00
2023-01-03T08:09:07.162Z,98758.00
2023-01-03T08:11:52.786Z,98755.00
2023-01-03T08:14:25.751Z,98742.00
2023-01-03T08:16:55.121Z,98761.00
2023-01-03T08:19:23.800Z,98764.00
2023-01-03T08:21:53.602Z,98760.00
2023-01-03T08:24:23.028Z,98763.00
2023-01-03T08:26:51.998Z,98746.00
2023-01-03T08:29:20.122Z,98764.00
2023-01-03T08:31:54.272Z,98768.00
2023-01-03T08:34:29.466Z,98756.00
2023-01-03T08:37:03.901Z,98766.00
2023-01-03T08:39:40.104Z,98772.00
2023-01-03T08:42:11.079Z,98779.00
2023-01-03T08:44:41.045Z,98787.00
2023-01-03T08:47:10.670Z,98775.00
2023-01-03T08:49:39.995Z,98783.00
2023-01-03T08:52:10.035Z,98783.00
2023-01-03T08:54:39.163Z,98775.00
2023-01-03T08:57:07.391Z,98777.00
2023-01-03T08:59:35.612Z,98780.00
2023-01-03T09:02:04.592Z,98776.00
2023-01-03T09:04:32.925Z,98791.00
2023-01-03T09:07:01.145Z,98791.00
2023-01-03T09:09:30.690Z,98782.00
2023-01-03T09:11:58.898Z,98797.00
2023-01-03T09:14:27.140Z,98807.00
2023-01-03T09:16:55.315Z,98816.00
2023-01-03T09:19:23.999Z,98811.00
2023-01-03T09:21:52.177Z,98817.00
2023-01-03T09:24:20.339Z,98825.00
2023-01-03T09:26:54.482Z,98831.00
2023-01-03T09:29:23.272Z,98809.00
2023-01-03T09:31:51.829Z,98809.00
2023-01-03T09:34:20.538Z,98817.00
2023-01-03T09:36:48.959Z,98832.00
2023-01-03T09:39:17.122Z,98832.00
2023-01-03T09:41:45.437Z,98829.00
2023-01-03T09:44:15.287Z,98823.00
2023-01-03T09:46:43.671Z,98825.00
2023-01-03T09:49:14.441Z,98830.00
2023-01-03T09:52:15.904Z,98828.00
2023-01-03T09:55:07.074Z,98823.00
2023-01-03T09:57:54.036Z,98825.00
2023-01-03T10:00:47.909Z,98818.00
2023-01-03T10:03:51.489Z,98805.00
2023-01-03T10:06:41.559Z,98817.00
2023-01-03T10:09:26.035Z,98815.00
2023-01-03T10:12:09.303Z,98815.00
2023-01-03T10:14:56.899Z,98811.00
2023-01-03T10:17:39.757Z,98809.00
2023-01-03T10:20:33.853Z,98800.00
2023-01-03T10:23:05.157Z,98801.00
2023-01-03T10:25:33.478Z,98810.00
2023-01-03T10:28:12.569Z,98809.00
2023-01-03T10:31:08.346Z,98811.00
2023-01-03T10:33:45.305Z,98795.00
2023-01-03T10:36:14.884Z,98795.00
2023-01-03T10:38:51.566Z,98793.00
2023-01-03T10:41:32.366Z,98798.00
2023-01-03T10:44:02.275Z,98801.00
2023-01-03T10:46:31.253Z,98792.00
2023-01-03T10:49:29.778Z,98795.00
2023-01-03T10:52:03.702Z,98787.00
2023-01-03T10:54:49.892Z,98793.00
2023-01-03T10:57:40.000Z,98793.00
2023-01-03T11:00:26.438Z,98786.00
2023-01-03T11:02:56.804Z,98776.00
2023-01-03T11:05:27.915Z,98770.00
2023-01-03T11:07:58.934Z,98773.00
2023-01-03T11:10:37.922Z,98783.00
2023-01-03T11:13:24.283Z,98768.00
2023-01-03T11:15:56.588Z,98780.00
2023-01-03T11:18:26.716Z,98773.00
2023-01-03T11:21:08.881Z,98773.00
2023-01-03T11:24:08.193Z,98776.00
2023-01-03T11:26:47.604Z,98757.00
2023-01-03T11:29:42.179Z,98764.00
2023-01-03T11:32:29.231Z,98751.00
2023-01-03T11:35:28.544Z,98752.00
2023-01-03T11:38:13.580Z,98760.00
2023-01-03T11:40:52.608Z,98750.00
2023-01-03T11:43:47.157Z,98754.00
2023-01-03T11:46:34.089Z,98755.00
2023-01-03T11:49:29.948Z,98750.00
2023-01-03T11:52:19.950Z,98737.00
2023-01-03T11:55:35.717Z,98753.00
2023-01-03T11:58:32.255Z,98738.00
2023-01-03T12:01:22.628Z,98752.00
2023-01-03T12:04:15.403Z,98756.00
2023-01-03T12:07:14.291Z,98756.00
2023-01-03T12:09:53.487Z,98753.00
2023-01-03T12:12:49.298Z,98763.00
2023-01-03T12:15:24.005Z,98763.00
2023-01-03T12:18:01.658Z,98763.00
2023-01-03T12:20:37.499Z,98756.00
2023-01-03T12:23:18.008Z,98777.00
2023-01-03T12:25:53.843Z,98768.00
2023-01-03T12:28:32.467Z,98756.00
2023-01-03T12:31:08.693Z,98747.00
2023-01-03T12:33:46.100Z,98766.00
2023-01-03T12:36:29.220Z,98752.00
2023-01-03T12:39:08.379Z,98747.00
2023-01-03T12:41:48.165Z,98765.00
2023-01-03T12:44:26.227Z,98749.00
2023-01-03T12:46:57.566Z,98752.00
2023-01-03T12:49:35.623Z,98751.00
2023-01-03T12:52:03.915Z,98751.00
2023-01-03T12:54:44.046Z,98744.00
2023-01-03T12:57:47.037Z,98743.00
2023-01-03T13:00:41.294Z,98722.00
2023-01-03T13:03:21.057Z,98728.00
2023-01-03T13:05:53.893Z,98729.00
2023-01-03T13:08:35.424Z,98737.00
2023-01-03T13:11:09.044Z,98729.00
2023-01-03T13:13:37.641Z,98735.00
2023-01-03T13:16:44.841Z,98727.00
2023-01-03T13:19:55.705Z,98735.00
2023-01-03T13:22:58.796Z,98717.00
2023-01-03T13:25:44.694Z,98728.00
2023-01-03T13:28:36.487Z,98731.00
2023-01-03T13:31:41.259Z,98729.00
2023-01-03T13:34:36.103Z,98727.00
2023-01-03T13:37:18.392Z,98725.00
2023-01-03T13:40:00.007Z,98726.00
2023-01-03T13:42:31.502Z,98724.00
2023-01-03T13:45:56.115Z,98729.00
2023-01-03T13:48:33.382Z,98725.00
2023-01-03T13:51:25.162Z,98716.00
2023-01-03T13:54:04.502Z,98730.00
2023-01-03T13:56:58.519Z,98728.00
2023-01-03T13:59:35.455Z,98732.00
2023-01-03T14:03:05.745Z,98721.00
2023-01-03T14:06:21.666Z,98725.00
2023-01-03T14:09:50.759Z,98724.00
2023-01-03T14:13:31.124Z,98722.00
2023-01-03T14:16:23.560Z,98716.00
2023-01-03T14:19:13.037Z,98724.00
2023-01-03T14:21:48.411Z,98719.00
2023-01-03T14:24:26.139Z,98712.00
2023-01-03T14:26:55.863Z,98725.00
2023-01-03T14:29:27.103Z,98721.00
2023-01-03T14:32:00.197Z,98723.00
2023-01-03T14:34:35.808Z,98732.00
2023-01-03T14:37:12.653Z,98725.00
2023-01-03T14:39:40.928Z,98730.00
2023-01-03T14:42:17.579Z,98730.00
2023-01-03T14:44:52.261Z,98738.00
2023-01-03T14:47:20.436Z,98738.00
2023-01-03T14:49:53.028Z,98742.00
2023-01-03T14:52:32.148Z,98735.00
2023-01-03T14:55:05.928Z,98739.00
2023-01-03T14:57:40.246Z,98730.00
2023-01-03T15:00:16.888Z,98728.00
2023-01-03T15:02:47.320Z,98735.00
2023-01-03T15:05:30.690Z,98742.00
2023-01-03T15:08:11.419Z,98743.00
2023-01-03T15:10:48.849Z,98750.00
2023-01-03T15:13:22.804Z,98760.00
2023-01-03T15:15:56.696Z,98743.00
2023-01-03T15:18:27.933Z,98754.00
2023-01-03T15:20:58.193Z,98747.00
2023-01-03T15:23:43.854Z,98771.00
2023-01-03T15:26:24.309Z,98760.00
2023-01-03T15:28:55.577Z,98761.00
2023-01-03T15:31:37.391Z,98750.00
2023-01-03T15:34:17.280Z,98761.00
2023-01-03T15:36:52.713Z,98769.00
2023-01-03T15:39:26.581Z,98772.00
2023-01-03T15:45:11.376Z,98782.00
2023-01-03T15:47:40.639Z,98766.00
2023-01-03T15:50:18.647Z,98771.00
2023-01-03T15:52:46.940Z,98762.00
2023-01-03T15:55:18.492Z,98767.00
2023-01-03T15:57:52.386Z,98781.00
2023-01-03T16:00:24.008Z,98770.00
2023-01-03T16:02:53.024Z,98769.00
2023-01-03T16:05:23.681Z,98784.00
2023-01-03T16:07:52.053Z,98781.00
2023-01-03T16:10:22.518Z,98784.00
2023-01-03T16:12:50.694Z,98779.00
2023-01-03T16:15:22.282Z,98772.00
2023-01-03T16:17:52.175Z,98773.00
2023-01-03T16:20:21.076Z,98775.00
2023-01-03T16:23:00.400Z,98780.00
2023-01-03T16:25:31.151Z,98784.00
2023-01-03T16:27:59.260Z,98795.00
2023-01-03T16:30:27.471Z,98787.00
2023-01-03T16:32:55.711Z,98778.00
2023-01-03T16:35:24.127Z,98796.00
2023-01-03T16:37:52.356Z,98800.00
2023-01-03T16:40:22.308Z,98795.00
2023-01-03T16:42:51.876Z,98796.00
2023-01-03T16:45:20.073Z,98805.00
2023-01-03T16:47:49.737Z,98810.00
2023-01-03T16:50:21.513Z,98826.00
2023-01-03T16:52:54.192Z,98827.00
2023-01-03T16:55:28.071Z,98822.00
2023-01-03T16:57:58.037Z,98823.00
2023-01-03T17:00:29.602Z,98819.00
2023-01-03T17:02:59.950Z,98805.00
2023-01-03T17:05:32.553Z,98804.00
2023-01-03T17:08:07.538Z,98808.00
2023-01-03T17:10:41.670Z,98815.00
2023-01-03T17:13:28.959Z,98807.00
2023-01-03T17:15:58.359Z,98823.00
2023-01-03T17:18:29.599Z,98822.00
2023-01-03T17:21:02.315Z,98822.00
2023-01-03T17:23:36.570Z,98812.00
2023-01-03T17:26:05.122Z,98823.00
2023-01-03T17:28:37.429Z,98824.00
2023-01-03T17:31:05.967Z,98822.00
2023-01-03T17:33:34.584Z,98826.00
2023-01-03T17:36:03.056Z,98837.00
2023-01-03T17:38:34.080Z,98853.00
2023-01-03T17:41:02.304Z,98847.00
2023-01-03T17:43:30.927Z,98837.00
2023-01-03T17:46:23.705Z,98831.00
2023-01-03T17:49:09.961Z,98826.00
2023-01-03T17:51:38.744Z,98839.00
2023-01-03T17:54:07.004Z,98843.00
2023-01-03T17:56:37.273Z,98843.00
2023-01-03T17:59:05.813Z,98841.00
2023-01-03T18:01:35.425Z,98845.00
2023-01-03T18:04:03.755Z,98832.00
2023-01-03T18:06:32.197Z,98838.00
2023-01-03T18:09:12.230Z,98848.00
2023-01-03T18:11:40.476Z,98838.00
2023-01-03T18:14:14.265Z,98843.00
2023-01-03T18:16:48.767Z,98849.00
2023-01-03T18:19:19.838Z,98852.00
2023-01-03T18:21:48.257Z,98859.00
2023-01-03T18:24:20.295Z,98847.00
2023-01-03T18:26:52.941Z,98849.00
2023-01-03T18:29:21.535Z,98843.00
2023-01-03T18:31:51.791Z,98849.00
2023-01-03T18:34:20.020Z,98844.00
2023-01-03T18:36:52.486Z,98854.00
2023-01-03T18:39:27.734Z,98847.00
2023-01-03T18:42:17.079Z,98842.00
2023-01-03T18:44:45.558Z,98849.00
2023-01-03T18:47:17.125Z,98838.00
2023-01-03T18:49:45.385Z,98844.00
2023-01-03T18:52:24.677Z,98840.00
2023-01-03T18:54:54.322Z,98844.00
2023-01-03T18:57:24.196Z,98846.00
2023-01-03T18:59:52.399Z,98842.00
2023-01-03T19:02:23.718Z,98842.00
2023-01-03T19:04:52.333Z,98834.00
2023-01-03T19:07:31.187Z,98836.00
2023-01-03T19:10:00.548Z,98833.00
2023-01-03T19:12:31.470Z,98830.00
2023-01-03T19:14:59.664Z,98815.00
2023-01-03T19:17:29.210Z,98815.00
2023-01-03T19:19:57.365Z,98821.00
2023-01-03T19:22:29.598Z,98827.00
2023-01-03T19:25:01.747Z,98830.00
2023-01-03T19:27:37.564Z,98816.00
2023-01-03T19:30:16.094Z,98821.00
2023-01-03T19:32:52.194Z,98822.00
2023-01-03T19:35:23.288Z,98812.00
2023-01-03T19:37:52.770Z,98817.00
2023-01-03T19:40:25.719Z,98824.00
2023-01-03T19:42:57.045Z,98840.00
2023-01-03T19:45:29.533Z,98828.00
2023-01-03T19:48:03.622Z,98828.00
2023-01-03T19:50:34.600Z,98829.00
2023-01-03T19:53:06.282Z,98824.00
2023-01-03T19:55:38.550Z,98833.00
2023-01-03T19:58:18.479Z,98825.00
2023-01-03T20:00:51.797Z,98827.00
2023-01-03T20:03:30.068Z,98813.00
2023-01-03T20:05:59.676Z,98838.00
2023-01-03T20:08:28.771Z,98843.00
2023-01-03T20:10:57.535Z,98825.00
2023-01-03T20:13:28.440Z,98828.00
2023-01-03T20:16:00.506Z,98820.00
2023-01-03T20:18:36.105Z,98822.00
2023-01-03T20:21:16.677Z,98822.00
2023-01-03T20:23:52.383Z,98825.00
2023-01-03T20:26:25.060Z,98833.00
2023-01-03T20:28:55.342Z,98840.00
2023-01-03T20:31:24.014Z,98826.00
2023-01-03T20:33:53.864Z,98824.00
2023-01-03T20:36:25.350Z,98814.00
2023-01-03T20:38:56.857Z,98819.00
2023-01-03T20:41:36.039Z,98822.00
2023-01-03T20:44:07.256Z,98807.00
2023-01-03T20:46:36.207Z,98808.00
2023-01-03T20:49:08.225Z,98812.00
2023-01-03T20:51:36.434Z,98804.00
2023-01-03T20:54:04.971Z,98820.00
2023-01-03T20:56:33.924Z,98817.00
2023-01-03T20:59:02.186Z,98807.00
2023-01-03T21:01:31.079Z,98804.00
2023-01-03T21:03:59.643Z,98799.00
2023-01-03T21:06:30.080Z,98804.00
2023-01-03T21:08:58.119Z,98817.00
2023-01-03T21:11:29.328Z,98817.00
2023-01-03T21:13:59.376Z,98817.00
2023-01-03T21:16:35.193Z,98801.00
2023-01-03T21:19:12.402Z,98803.00
2023-01-03T21:21:43.803Z,98799.00
2023-01-03T21:24:14.044Z,98815.00
2023-01-03T21:26:43.033Z,98802.00
2023-01-03T21:29:13.964Z,98808.00
2023-01-03T21:31:43.819Z,98813.00
2023-01-03T21:34:18.758Z,98809.00
2023-01-03T21:36:49.092Z,98799.00
2023-01-03T21:39:17.822Z,98807.00
2023-01-03T21:42:03.570Z,98804.00
2023-01-03T21:44:31.733Z,98802.00
2023-01-03T21:46:59.864Z,98793.00
2023-01-03T21:49:28.129Z,98805.00
2023-01-03T21:51:57.680Z,98797.00
2023-01-03T21:54:26.244Z,98792.00
2023-01-03T21:56:54.402Z,98797.00
2023-01-03T21:59:22.513Z,98799.00
2023-01-03T22:02:08.436Z,98794.00
2023-01-03T22:04:36.767Z,98794.00
2023-01-03T22:07:06.289Z,98781.00
2023-01-03T22:09:52.165Z,98776.00
2023-01-03T22:12:20.892Z,98774.00
2023-01-03T22:14:49.333Z,98782.00
2023-01-03T22:17:17.774Z,98797.00
2023-01-03T22:19:45.933Z,98775.00
2023-01-03T22:22:15.428Z,98797.00
2023-01-03T22:24:43.650Z,98795.00
2023-01-03T22:27:11.796Z,98798.00
2023-01-03T22:29:39.942Z,98801.00
2023-01-03T22:32:10.374Z,98793.00
2023-01-03T22:34:39.466Z,98805.00
2023-01-03T22:37:07.712Z,98786.00
2023-01-03T22:39:37.293Z,98804.00
2023-01-03T22:42:05.814Z,98794.00
2023-01-03T22:44:34.031Z,98797.00
2023-01-03T22:47:02.605Z,98793.00
2023-01-03T22:49:30.826Z,98807.00
2023-01-03T22:51:59.083Z,98786.00
2023-01-03T22:54:27.255Z,98791.00
2023-01-03T22:56:58.419Z,98784.00
2023-01-03T22:59:26.733Z,98782.00
2023-01-03T23:01:57.209Z,98768.00
2023-01-03T23:04:26.547Z,98773.00
2023-01-03T23:06:55.602Z,98766.00
2023-01-03T23:09:24.700Z,98770.00
2023-01-03T23:12:10.688Z,98760.00
2023-01-03T23:14:40.221Z,98763.00
2023-01-03T23:17:29.125Z,98765.00
2023-01-03T23:19:57.379Z,98756.00
2023-01-03T23:22:26.746Z,98755.00
2023-01-03T23:24:57.999Z,98755.00
2023-01-03T23:27:28.777Z,98753.00
2023-01-03T23:29:58.178Z,98755.00
2023-01-03T23:32:26.413Z,98752.00
2023-01-03T23:34:54.563Z,98751.00
2023-01-03T23:37:22.673Z,98744.00
2023-01-03T23:39:50.883Z,98735.00
2023-01-03T23:42:19.053Z,98732.00
2023-01-03T23:44:47.168Z,98732.00
2023-01-03T23:47:16.595Z,98731.00
2023-01-03T23:49:44.684Z,98745.00
2023-01-03T23:52:12.839Z,98730.00
2023-01-03T23:54:40.988Z,98732.00
2023-01-03T23:57:09.484Z,98730.00
2023-01-03T23:59:37.557Z,98729.00
